Terminal Aerodrome Forecast
Issued by NWS

Home | Current Version | Previous Version | Text Only | Print | Product List | Glossary On
Versions: 1 2 3 4 5 6 7 8 9 10 11 12 13 14 15 16 17 18 19 20 21
000
FTUS43 KABR 312339
TAFMBG
TAF
KMBG 312339Z 0100/0124 28025G35KT P6SM VCSH OVC045
     FM010100 28020G29KT P6SM BKN050
     FM010300 29015G23KT P6SM BKN040
     FM011400 30015G24KT P6SM SCT035=

USA.gov is the U.S. government's official web portal to all federal, state and local government web resources and services.